»·PEaware :: N73YZ KSNA-L71

N73YZ :: KSNA-L71

FLIGHT INFORMATION

Flight Status: Arrived
Operator: Privately registered:
United States
More flights under this callsign
Pilot: William K. (10629)
Aircraft: CESSNA 206 STATIONAIR
(c206)
More flights by this aircraft type
Origin: KSNA John Wayne-Orange Co
United States
Destination: L71 California City Mun
United States
More flights between these airports :: More routes between these airports
Route: +
File this flight plan on PilotEdge
Remarks:
Altitude:
(Current/Filed)
6,000ft
Speed:
(Current/Filed)
140kts
Departed: 14-Aug-16 01:16 PM
Arrived: 14-Aug-16 02:23 PM
Distance/Time
Traveled:
89nm/1:07
Distance/Time
To Go:
Arrived

Flight Plot

Page will automatically refresh every two minutes.

Flight plan parsing failed; only flown route is shown


Map Options




Map Legend


Flown Route
Filed Route
Departure Airport
Arrival Airport
Navaid (VOR, NDB)
Fix

Horizontal Profiles

Position Reports

Time Latitude Longitude Heading Altitude Ground
Speed
14-Aug-16 13:08 33.672300 -117.866950 176 60ft 0kts
14-Aug-16 13:09 33.672300 -117.866950 176 60ft 0kts
14-Aug-16 13:10 33.672300 -117.866950 176 60ft 0kts
14-Aug-16 13:11 33.672300 -117.866950 176 60ft 0kts
14-Aug-16 13:12 33.672289 -117.866954 198 60ft 1kts
14-Aug-16 13:13 33.675632 -117.866157 26 60ft 25kts
14-Aug-16 13:14 33.679943 -117.863668 306 60ft 0kts
14-Aug-16 13:15 33.678393 -117.865337 205 60ft 53kts
14-Aug-16 13:16 33.672440 -117.883586 320 779ft 92kts
14-Aug-16 13:17 33.699926 -117.894086 339 1483ft 106kts
14-Aug-16 13:18 33.726646 -117.903274 339 2158ft 98kts
14-Aug-16 13:19 33.754978 -117.913249 340 2384ft 128kts
14-Aug-16 13:20 33.787332 -117.925641 324 2373ft 125kts
14-Aug-16 13:21 33.795108 -117.961395 269 2809ft 110kts
14-Aug-16 13:22 33.778175 -117.989146 226 3395ft 104kts
14-Aug-16 13:23 33.758823 -118.013571 226 3980ft 101kts
14-Aug-16 13:24 33.739858 -118.037481 228 4570ft 99kts
14-Aug-16 13:25 33.721415 -118.060656 227 5149ft 98kts
14-Aug-16 13:26 33.702922 -118.083682 227 5735ft 97kts
14-Aug-16 13:27 33.684482 -118.106566 227 6324ft 98kts
14-Aug-16 13:28 33.695035 -118.136022 314 6489ft 128kts
14-Aug-16 13:29 33.716601 -118.172679 299 6488ft 142kts
14-Aug-16 13:30 33.736219 -118.206653 309 6488ft 131kts
14-Aug-16 13:31 33.754019 -118.231073 313 6491ft 128kts
14-Aug-16 13:32 33.775044 -118.256934 315 6493ft 127kts
14-Aug-16 13:33 33.798059 -118.283544 317 6495ft 126kts
14-Aug-16 13:34 33.822395 -118.310799 317 6497ft 126kts
14-Aug-16 13:35 33.842505 -118.333038 317 6497ft 126kts
14-Aug-16 13:36 33.867926 -118.360899 317 6499ft 126kts
14-Aug-16 13:37 33.893464 -118.388788 317 6500ft 126kts
14-Aug-16 13:38 33.918860 -118.416513 317 6501ft 126kts
14-Aug-16 13:39 33.946130 -118.440409 333 6501ft 127kts
14-Aug-16 13:40 33.970302 -118.453926 334 6501ft 128kts
14-Aug-16 13:41 33.994593 -118.467465 334 6500ft 128kts
14-Aug-16 13:42 34.019117 -118.481118 334 6500ft 129kts
14-Aug-16 13:43 34.046023 -118.492607 341 6501ft 129kts
14-Aug-16 13:44 34.073192 -118.503604 339 6501ft 129kts
14-Aug-16 13:45 34.100330 -118.504140 20 6500ft 131kts
14-Aug-16 13:46 34.128958 -118.491826 20 6723ft 124kts
14-Aug-16 13:47 34.155452 -118.480072 21 7221ft 118kts
14-Aug-16 13:48 34.183599 -118.467274 20 7779ft 114kts
14-Aug-16 13:49 34.212475 -118.453937 20 8368ft 111kts
14-Aug-16 13:50 34.244603 -118.438974 21 8484ft 141kts
14-Aug-16 13:51 34.281614 -118.421799 21 8486ft 142kts
14-Aug-16 13:52 34.318176 -118.404839 21 8493ft 141kts
14-Aug-16 13:53 34.354592 -118.387916 21 8502ft 140kts
14-Aug-16 13:54 34.390654 -118.371140 21 8513ft 140kts
14-Aug-16 13:55 34.426914 -118.354242 21 8523ft 140kts
14-Aug-16 13:56 34.456967 -118.340112 21 8531ft 140kts
14-Aug-16 13:57 34.494553 -118.322157 21 8541ft 139kts
14-Aug-16 13:58 34.520435 -118.309537 21 8546ft 139kts
14-Aug-16 13:59 34.551481 -118.294053 21 8552ft 139kts
14-Aug-16 14:00 34.587175 -118.275986 21 8472ft 141kts
14-Aug-16 14:01 34.620608 -118.258927 20 8473ft 140kts
14-Aug-16 14:02 34.656117 -118.240839 20 8474ft 139kts
14-Aug-16 14:03 34.689636 -118.223679 21 8474ft 139kts
14-Aug-16 14:04 34.724674 -118.205758 21 8475ft 139kts
14-Aug-16 14:05 34.759587 -118.187865 20 8477ft 139kts
14-Aug-16 14:06 34.794096 -118.170127 20 8479ft 139kts
14-Aug-16 14:07 34.828286 -118.152538 21 8481ft 139kts
14-Aug-16 14:08 34.844795 -118.144031 21 8381ft 140kts
14-Aug-16 14:09 34.857477 -118.137351 20 8169ft 142kts
14-Aug-16 14:10 34.871632 -118.129695 20 7933ft 143kts
14-Aug-16 14:11 34.897052 -118.117686 16 7520ft 143kts
14-Aug-16 14:12 34.933349 -118.101010 16 6936ft 145kts
14-Aug-16 14:13 34.969619 -118.083910 16 6355ft 146kts
14-Aug-16 14:14 35.005396 -118.066731 16 5790ft 148kts
14-Aug-16 14:15 35.034393 -118.052738 16 5339ft 150kts
14-Aug-16 14:16 35.046904 -118.046699 16 5147ft 151kts
14-Aug-16 14:17 35.066469 -118.034503 32 4834ft 155kts
14-Aug-16 14:18 35.100669 -118.004012 33 4253ft 157kts
14-Aug-16 14:19 35.131814 -117.971371 34 3864ft 146kts
14-Aug-16 14:20 35.156701 -117.977877 268 2869ft 104kts
14-Aug-16 14:21 35.153727 -118.005086 248 2485ft 70kts
14-Aug-16 14:22 35.150258 -118.015341 252 2439ft 0kts

Navigation Log

Ident Type
Flight plan parsing failed, navigation log unavailable